Time;durP1;ratioP1;P1;durP2;ratioP2;P2;SDS_P1;SDS_P2;PMS_P1;PMS_P2;Temp;Humidity;BMP_temperature;BMP_pressure;BME280_temperature;BME280_humidity;BME280_pressure;Samples;Min_cycle;Max_cycle;Signal;HPM_P1;HPM_P2
2023/09/01 00:00:43;;;;;;;;;;;;;;;;;;5053843;28;5080;-58
2023/09/01 00:03:08;;;;;;;;;;;;;;;;;;5062780;28;4961;-57
2023/09/01 00:05:34;;;;;;;;;;;;;;;;;;5067126;28;4875;-57
2023/09/01 00:07:59;;;;;;;;;;;;;;;;;;5063210;28;1316;-57
2023/09/01 00:10:24;;;;;;;;;;;;;;;;;;5067594;28;4939;-57
2023/09/01 00:12:49;;;;;;;;;;;;;;;;;;5067952;28;4952;-57
2023/09/01 00:15:15;;;;;;;;;;;;;;;;;;5066161;28;5076;-58
2023/09/01 00:17:40;;;;;;;;;;;;;;;;;;5065831;28;4870;-58
2023/09/01 00:20:06;;;;;;;;;;;;;;;;;;5068151;28;1415;-58
2023/09/01 00:22:31;;;;;;;;;;;;;;;;;;5067191;28;4416;-57
2023/09/01 00:24:56;;;;;;;;;;;;;;;;;;5046661;28;4592;-57
2023/09/01 00:27:21;;;;;;;;;;;;;;;;;;5040806;28;4877;-57
2023/09/01 00:29:46;;;;;;;;;;;;;;;;;;5052289;28;4824;-57
2023/09/01 00:32:12;;;;;;;;;;;;;;;;;;5063877;28;5218;-58
2023/09/01 00:34:37;;;;;;;;;;;;;;;;;;5062227;28;1299;-57
2023/09/01 00:37:03;;;;;;;;;;;;;;;;;;5051915;28;5107;-58
2023/09/01 00:39:28;;;;;;;;;;;;;;;;;;5050764;28;5041;-56
2023/09/01 00:41:53;;;;;;;;;;;;;;;;;;5045673;28;4944;-58
2023/09/01 00:44:19;;;;;;;;;;;;;;;;;;5039430;28;5146;-56
2023/09/01 00:46:46;;;;;;;;;;;;;;;;;;5048158;28;1286;-57
2023/09/01 00:49:11;;;;;;;;;;;;;;;;;;5045081;28;5674;-57
2023/09/01 00:51:36;;;;;;;;;;;;;;;;;;5041011;28;5321;-58
2023/09/01 00:54:02;;;;;;;;;;;;;;;;;;5045587;28;5070;-57
2023/09/01 00:56:27;;;;;;;;;;;;;;;;;;5048027;28;4990;-57
2023/09/01 00:58:52;;;;;;;;;;;;;;;;;;5062601;28;1566;-57
2023/09/01 01:01:18;;;;;;;;;;;;;;;;;;5040856;28;5204;-57
2023/09/01 01:03:43;;;;;;;;;;;;;;;;;;5045907;28;4498;-58
2023/09/01 01:06:14;;;;;;;;;;;;;;;;;;5062876;28;4971;-55
2023/09/01 01:08:54;;;;;;;;;;;;;;;;;;5036985;28;5067;-57
2023/09/01 01:11:27;;;;;;;;;;;;;;;;;;5061036;28;5084;-57
2023/09/01 01:13:54;;;;;;;;;;;;;;;;;;5048370;28;1132;-56
2023/09/01 01:16:19;;;;;;;;;;;;;;;;;;5061893;28;4660;-58
2023/09/01 01:18:45;;;;;;;;;;;;;;;;;;5062506;28;4445;-56
2023/09/01 01:21:11;;;;;;;;;;;;;;;;;;5032761;28;4958;-56
2023/09/01 01:23:37;;;;;;;;;;;;;;;;;;5038822;28;5145;-54
2023/09/01 01:26:02;;;;;;;;;;;;;;;;;;5061076;28;1346;-54
2023/09/01 01:28:27;;;;;;;;;;;;;;;;;;5071711;28;4445;-56
2023/09/01 01:30:53;;;;;;;;;;;;;;;;;;5045918;28;4855;-56
2023/09/01 01:33:30;;;;;;;;;;;;;;;;;;5067358;28;5347;-54
2023/09/01 01:36:15;;;;;;;;;;;;;;;;;;5082478;28;5140;-56
2023/09/01 01:38:41;;;;;;;;;;;;;;;;;;5081067;28;5105;-56
2023/09/01 01:41:09;;;;;;;;;;;;;;;;;;5071065;28;1096;-56
2023/09/01 01:43:35;;;;;;;;;;;;;;;;;;5080973;28;5091;-56
2023/09/01 01:46:00;;;;;;;;;;;;;;;;;;5082070;28;4539;-56
2023/09/01 01:48:25;;;;;;;;;;;;;;;;;;5099066;28;5141;-56
2023/09/01 01:50:54;;;;;;;;;;;;;;;;;;5073873;28;4945;-56
2023/09/01 01:53:20;;;;;;;;;;;;;;;;;;5078204;28;4856;-56
2023/09/01 01:55:45;;;;;;;;;;;;;;;;;;5083664;28;1253;-56
2023/09/01 01:58:11;;;;;;;;;;;;;;;;;;5099234;28;4450;-56
2023/09/01 02:00:36;;;;;;;;;;;;;;;;;;5096234;28;4474;-57
2023/09/01 02:03:01;;;;;;;;;;;;;;;;;;5089976;28;5286;-57
2023/09/01 02:05:26;;;;;;;;;;;;;;;;;;5098159;28;4957;-57
2023/09/01 02:07:52;;;;;;;;;;;;;;;;;;5097576;28;1433;-56
2023/09/01 02:10:17;;;;;;;;;;;;;;;;;;5096250;28;5048;-57
2023/09/01 02:12:43;;;;;;;;;;;;;;;;;;5095092;28;5224;-56
2023/09/01 02:15:08;;;;;;;;;;;;;;;;;;5099661;28;5040;-57
2023/09/01 02:17:37;;;;;;;;;;;;;;;;;;5099648;28;5070;-56
2023/09/01 02:20:12;;;;;;;;;;;;;;;;;;5098229;28;1209;-56
2023/09/01 02:22:38;;;;;;;;;;;;;;;;;;5099109;28;5086;-56
2023/09/01 02:25:08;;;;;;;;;;;;;;;;;;5099144;28;4916;-57
2023/09/01 02:27:33;;;;;;;;;;;;;;;;;;5095412;28;5048;-56
2023/09/01 02:29:58;;;;;;;;;;;;;;;;;;5101567;28;4747;-57
2023/09/01 02:32:24;;;;;;;;;;;;;;;;;;5090253;28;5069;-56
2023/09/01 02:34:49;;;;;;;;;;;;;;;;;;5099859;28;1213;-57
2023/09/01 02:37:14;;;;;;;;;;;;;;;;;;5091953;28;5025;-56
2023/09/01 02:39:39;;;;;;;;;;;;;;;;;;5099087;28;4625;-57
2023/09/01 02:42:04;;;;;;;;;;;;;;;;;;5094510;28;5264;-56
2023/09/01 02:44:30;;;;;;;;;;;;;;;;;;5095122;28;5048;-56
2023/09/01 02:46:55;;;;;;;;;;;;;;;;;;5098601;28;3277;-56
2023/09/01 02:49:20;;;;;;;;;;;;;;;;;;5090226;28;5068;-56
2023/09/01 02:51:48;;;;;;;;;;;;;;;;;;5096682;28;5254;-57
2023/09/01 02:54:13;;;;;;;;;;;;;;;;;;5074335;28;5171;-56
2023/09/01 02:56:38;;;;;;;;;;;;;;;;;;5094659;28;5010;-57
2023/09/01 02:59:04;;;;;;;;;;;;;;;;;;5098561;28;3123;-57
2023/09/01 03:01:29;;;;;;;;;;;;;;;;;;5088860;28;5107;-56
2023/09/01 03:03:54;;;;;;;;;;;;;;;;;;5097717;28;5181;-57
2023/09/01 03:06:20;;;;;;;;;;;;;;;;;;5098097;28;4980;-56
2023/09/01 03:08:45;;;;;;;;;;;;;;;;;;5102873;28;4498;-57
2023/09/01 03:11:10;;;;;;;;;;;;;;;;;;5088354;28;5001;-57
2023/09/01 03:13:35;;;;;;;;;;;;;;;;;;5100370;28;3005;-57
2023/09/01 03:16:02;;;;;;;;;;;;;;;;;;5093262;28;4638;-57
2023/09/01 03:18:27;;;;;;;;;;;;;;;;;;5093726;28;5058;-56
2023/09/01 03:20:53;;;;;;;;;;;;;;;;;;5090353;28;5101;-57
2023/09/01 03:23:19;;;;;;;;;;;;;;;;;;5090915;28;5137;-57
2023/09/01 03:25:51;;;;;;;;;;;;;;;;;;5089678;28;3256;-56
2023/09/01 03:28:16;;;;;;;;;;;;;;;;;;5090597;28;4808;-57
2023/09/01 03:30:42;;;;;;;;;;;;;;;;;;5090198;28;5200;-56
2023/09/01 03:33:08;;;;;;;;;;;;;;;;;;5088945;28;5129;-57
2023/09/01 03:35:33;;;;;;;;;;;;;;;;;;5093868;28;4979;-56
2023/09/01 03:37:58;;;;;;;;;;;;;;;;;;5099922;28;3241;-56
2023/09/01 03:40:23;;;;;;;;;;;;;;;;;;5093840;28;4925;-55
2023/09/01 03:42:49;;;;;;;;;;;;;;;;;;5094524;28;4671;-57
2023/09/01 03:45:14;;;;;;;;;;;;;;;;;;5097186;28;5031;-57
2023/09/01 03:47:39;;;;;;;;;;;;;;;;;;5098941;28;4473;-56
2023/09/01 03:50:05;;;;;;;;;;;;;;;;;;5106521;28;1308;-56
2023/09/01 03:52:30;;;;;;;;;;;;;;;;;;5103710;28;5002;-56
2023/09/01 03:54:55;;;;;;;;;;;;;;;;;;5100101;28;4960;-57
2023/09/01 03:57:21;;;;;;;;;;;;;;;;;;5084383;28;5001;-57
2023/09/01 03:59:47;;;;;;;;;;;;;;;;;;5098021;28;4541;-56
2023/09/01 04:02:13;;;;;;;;;;;;;;;;;;5095901;28;5224;-57
2023/09/01 04:04:38;;;;;;;;;;;;;;;;;;5093937;28;1080;-56
2023/09/01 04:07:03;;;;;;;;;;;;;;;;;;5094262;28;5073;-56
2023/09/01 04:09:28;;;;;;;;;;;;;;;;;;5095484;28;5039;-57
2023/09/01 04:11:55;;;;;;;;;;;;;;;;;;5088022;28;5024;-56
2023/09/01 04:14:20;;;;;;;;;;;;;;;;;;5093862;28;5245;-57
2023/09/01 04:16:45;;;;;;;;;;;;;;;;;;5094261;28;1378;-56
2023/09/01 04:19:11;;;;;;;;;;;;;;;;;;5094207;28;5009;-56
2023/09/01 04:21:36;;;;;;;;;;;;;;;;;;5091276;28;4665;-57
2023/09/01 04:24:01;;;;;;;;;;;;;;;;;;5089453;28;5020;-56
2023/09/01 04:26:27;;;;;;;;;;;;;;;;;;5097350;28;5033;-59
2023/09/01 04:28:52;;;;;;;;;;;;;;;;;;5089051;28;1368;-56
2023/09/01 04:31:24;;;;;;;;;;;;;;;;;;5092072;28;4992;-57
2023/09/01 04:33:49;;;;;;;;;;;;;;;;;;5094429;28;5040;-57
2023/09/01 04:36:14;;;;;;;;;;;;;;;;;;5090674;28;5167;-56
2023/09/01 04:38:41;;;;;;;;;;;;;;;;;;5092548;28;5050;-56
2023/09/01 04:41:06;;;;;;;;;;;;;;;;;;5090041;28;3187;-57
2023/09/01 04:43:31;;;;;;;;;;;;;;;;;;5092821;28;4974;-56
2023/09/01 04:45:57;;;;;;;;;;;;;;;;;;5100085;28;4507;-56
2023/09/01 04:48:22;;;;;;;;;;;;;;;;;;5100708;28;4837;-56
2023/09/01 04:50:48;;;;;;;;;;;;;;;;;;5093384;28;5061;-56
2023/09/01 04:53:14;;;;;;;;;;;;;;;;;;5090035;28;5065;-56
2023/09/01 04:55:39;;;;;;;;;;;;;;;;;;5092193;28;1545;-56
2023/09/01 04:58:04;;;;;;;;;;;;;;;;;;5067994;28;5052;-56
2023/09/01 05:00:29;;;;;;;;;;;;;;;;;;5066326;28;5328;-56
2023/09/01 05:02:55;;;;;;;;;;;;;;;;;;5062897;28;5097;-57
2023/09/01 05:05:20;;;;;;;;;;;;;;;;;;5067208;28;5149;-56
2023/09/01 05:07:45;;;;;;;;;;;;;;;;;;5067403;28;1140;-56
2023/09/01 05:10:10;;;;;;;;;;;;;;;;;;5061220;28;5125;-56
2023/09/01 05:12:36;;;;;;;;;;;;;;;;;;5060638;28;4971;-56
2023/09/01 05:15:01;;;;;;;;;;;;;;;;;;5066728;28;4877;-56
2023/09/01 05:17:26;;;;;;;;;;;;;;;;;;5066528;28;5021;-56
2023/09/01 05:19:52;;;;;;;;;;;;;;;;;;5067672;28;3283;-56
2023/09/01 05:22:18;;;;;;;;;;;;;;;;;;5077327;28;4985;-55
2023/09/01 05:24:43;;;;;;;;;;;;;;;;;;5062853;28;5009;-56
2023/09/01 05:27:08;;;;;;;;;;;;;;;;;;5059446;28;5074;-56
2023/09/01 05:29:33;;;;;;;;;;;;;;;;;;5063547;28;5078;-56
2023/09/01 05:31:58;;;;;;;;;;;;;;;;;;5061892;28;5051;-56
2023/09/01 05:34:24;;;;;;;;;;;;;;;;;;5061992;28;4892;-57
2023/09/01 05:36:50;;;;;;;;;;;;;;;;;;5055316;28;4509;-51
2023/09/01 05:39:15;;;;;;;;;;;;;;;;;;5046066;28;5145;-50
2023/09/01 05:41:40;;;;;;;;;;;;;;;;;;5058955;28;5057;-52
2023/09/01 05:44:05;;;;;;;;;;;;;;;;;;5062471;28;1117;-49
2023/09/01 05:46:31;;;;;;;;;;;;;;;;;;5065032;28;4911;-50
2023/09/01 05:48:56;;;;;;;;;;;;;;;;;;5063687;28;5042;-51
2023/09/01 05:51:21;;;;;;;;;;;;;;;;;;5063138;28;4941;-53
2023/09/01 05:53:46;;;;;;;;;;;;;;;;;;5068354;28;5028;-52
2023/09/01 05:56:12;;;;;;;;;;;;;;;;;;5067876;28;4677;-51
2023/09/01 05:58:37;;;;;;;;;;;;;;;;;;5060895;28;1480;-53
2023/09/01 06:01:03;;;;;;;;;;;;;;;;;;5061186;28;5520;-53
2023/09/01 06:03:28;;;;;;;;;;;;;;;;;;5050177;28;4713;-52
2023/09/01 06:05:54;;;;;;;;;;;;;;;;;;5048619;28;5184;-53
2023/09/01 06:08:19;;;;;;;;;;;;;;;;;;5047956;28;5008;-51
2023/09/01 06:10:44;;;;;;;;;;;;;;;;;;5046525;28;1123;-53
2023/09/01 06:13:09;;;;;;;;;;;;;;;;;;5048725;28;5007;-52
2023/09/01 06:15:35;;;;;;;;;;;;;;;;;;5049506;28;4602;-52
2023/09/01 06:18:00;;;;;;;;;;;;;;;;;;5049030;28;4725;-53
2023/09/01 06:20:25;;;;;;;;;;;;;;;;;;5050346;28;5137;-53
2023/09/01 06:22:53;;;;;;;;;;;;;;;;;;5070586;28;1984;-53
2023/09/01 06:25:19;;;;;;;;;;;;;;;;;;5065983;28;4415;-54
2023/09/01 06:27:44;;;;;;;;;;;;;;;;;;5070149;28;4979;-54
2023/09/01 06:30:09;;;;;;;;;;;;;;;;;;5069091;28;5108;-53
2023/09/01 06:32:35;;;;;;;;;;;;;;;;;;5064843;28;5075;-54
2023/09/01 06:35:00;;;;;;;;;;;;;;;;;;5048074;28;1322;-54
2023/09/01 06:37:25;;;;;;;;;;;;;;;;;;5049713;28;4969;-50
2023/09/01 06:39:51;;;;;;;;;;;;;;;;;;5063335;28;5126;-52
2023/09/01 06:42:16;;;;;;;;;;;;;;;;;;5067507;28;5125;-55
2023/09/01 06:44:41;;;;;;;;;;;;;;;;;;5065864;28;5096;-54
2023/09/01 06:47:07;;;;;;;;;;;;;;;;;;5067541;28;1354;-53
2023/09/01 06:49:32;;;;;;;;;;;;;;;;;;5068016;28;4926;-54
2023/09/01 06:51:58;;;;;;;;;;;;;;;;;;5051280;28;4971;-53
2023/09/01 06:54:23;;;;;;;;;;;;;;;;;;5044876;28;5098;-55
2023/09/01 06:56:49;;;;;;;;;;;;;;;;;;5061093;28;5155;-53
2023/09/01 06:59:14;;;;;;;;;;;;;;;;;;5067656;28;5748;-52
2023/09/01 07:01:39;;;;;;;;;;;;;;;;;;5075248;28;1504;-54
2023/09/01 07:04:05;;;;;;;;;;;;;;;;;;5076245;28;5172;-54
2023/09/01 07:06:30;;;;;;;;;;;;;;;;;;5076188;28;5144;-54
2023/09/01 07:08:55;;;;;;;;;;;;;;;;;;5035483;28;5077;-55
2023/09/01 07:11:21;;;;;;;;;;;;;;;;;;5079611;28;4912;-55
2023/09/01 07:13:49;;;;;;;;;;;;;;;;;;5067907;28;3340;-52
2023/09/01 07:16:14;;;;;;;;;;;;;;;;;;5067305;28;5013;-54
2023/09/01 07:18:39;;;;;;;;;;;;;;;;;;5087066;28;5097;-59
2023/09/01 07:21:05;;;;;;;;;;;;;;;;;;5096914;28;4851;-60
2023/09/01 07:23:30;;;;;;;;;;;;;;;;;;5089735;28;4909;-57
2023/09/01 07:25:56;;;;;;;;;;;;;;;;;;5051390;28;3201;-59
2023/09/01 07:28:21;;;;;;;;;;;;;;;;;;5084934;28;5295;-59
2023/09/01 07:30:46;;;;;;;;;;;;;;;;;;5088063;28;5940;-60
2023/09/01 07:33:12;;;;;;;;;;;;;;;;;;5097822;28;5375;-60
2023/09/01 07:35:37;;;;;;;;;;;;;;;;;;5088277;28;4962;-60
2023/09/01 07:38:06;;;;;;;;;;;;;;;;;;5097100;28;1175;-59
2023/09/01 07:40:34;;;;;;;;;;;;;;;;;;5091367;28;4961;-58
2023/09/01 07:43:00;;;;;;;;;;;;;;;;;;5076411;28;5094;-61
2023/09/01 07:45:25;;;;;;;;;;;;;;;;;;5095889;28;4485;-61
2023/09/01 07:47:51;;;;;;;;;;;;;;;;;;5107081;27;5094;-60
2023/09/01 07:50:16;;;;;;;;;;;;;;;;;;5088035;28;5093;-60
2023/09/01 07:52:41;;;;;;;;;;;;;;;;;;5094738;28;3524;-60
2023/09/01 07:55:07;;;;;;;;;;;;;;;;;;5084714;28;4868;-59
2023/09/01 07:57:32;;;;;;;;;;;;;;;;;;5086956;28;5076;-60
2023/09/01 07:59:57;;;;;;;;;;;;;;;;;;5103298;28;5070;-59
2023/09/01 08:02:22;;;;;;;;;;;;;;;;;;5083412;28;5140;-60
2023/09/01 08:04:48;;;;;;;;;;;;;;;;;;5084267;28;3346;-59
2023/09/01 08:07:13;;;;;;;;;;;;;;;;;;5083153;28;5042;-60
2023/09/01 08:09:38;;;;;;;;;;;;;;;;;;5081495;28;4983;-58
2023/09/01 08:12:04;;;;;;;;;;;;;;;;;;5085838;28;4950;-62
2023/09/01 08:14:29;;;;;;;;;;;;;;;;;;5076895;28;5076;-60
2023/09/01 08:16:54;;;;;;;;;;;;;;;;;;5084721;28;3278;-58
2023/09/01 08:19:19;;;;;;;;;;;;;;;;;;5084008;28;4865;-62
2023/09/01 08:21:44;;;;;;;;;;;;;;;;;;5086166;28;5226;-59
2023/09/01 08:24:10;;;;;;;;;;;;;;;;;;5074748;28;5116;-66
2023/09/01 08:26:35;;;;;;;;;;;;;;;;;;5081737;28;4943;-59
2023/09/01 08:29:00;;;;;;;;;;;;;;;;;;5102779;28;2217;-59
2023/09/01 08:31:26;;;;;;;;;;;;;;;;;;5082533;28;5370;-58
2023/09/01 08:33:52;;;;;;;;;;;;;;;;;;5087148;28;4834;-58
2023/09/01 08:36:17;;;;;;;;;;;;;;;;;;5069106;28;4943;-59
2023/09/01 08:38:42;;;;;;;;;;;;;;;;;;5078175;28;5066;-59
2023/09/01 08:41:07;;;;;;;;;;;;;;;;;;5085713;28;3383;-59
2023/09/01 08:43:36;;;;;;;;;;;;;;;;;;5085856;28;4957;-59
2023/09/01 08:46:05;;;;;;;;;;;;;;;;;;5074310;28;5088;-59
2023/09/01 08:48:30;;;;;;;;;;;;;;;;;;5086675;28;5132;-58
2023/09/01 08:50:56;;;;;;;;;;;;;;;;;;5067301;28;4682;-59
2023/09/01 08:53:21;;;;;;;;;;;;;;;;;;5097071;28;4657;-54
2023/09/01 08:55:46;;;;;;;;;;;;;;;;;;5084780;28;3465;-56
2023/09/01 08:58:11;;;;;;;;;;;;;;;;;;5085985;28;4432;-55
2023/09/01 09:00:37;;;;;;;;;;;;;;;;;;5077972;28;4590;-53
2023/09/01 09:03:02;;;;;;;;;;;;;;;;;;5082656;28;4471;-54
2023/09/01 09:05:27;;;;;;;;;;;;;;;;;;5084622;28;5045;-55
2023/09/01 09:07:56;;;;;;;;;;;;;;;;;;5083249;28;1341;-55
2023/09/01 09:10:31;;;;;;;;;;;;;;;;;;5086607;28;4963;-54
2023/09/01 09:12:56;;;;;;;;;;;;;;;;;;5102109;28;4559;-53
2023/09/01 09:15:22;;;;;;;;;;;;;;;;;;5086462;28;5010;-53
2023/09/01 09:17:48;;;;;;;;;;;;;;;;;;5085892;28;5141;-54
2023/09/01 09:20:17;;;;;;;;;;;;;;;;;;5086551;28;4851;-55
2023/09/01 09:22:48;;;;;;;;;;;;;;;;;;5087347;28;1967;-55
2023/09/01 09:25:40;;;;;;;;;;;;;;;;;;5083375;28;5153;-56
2023/09/01 09:28:12;;;;;;;;;;;;;;;;;;5084343;28;4979;-55
2023/09/01 09:30:47;;;;;;;;;;;;;;;;;;5071418;28;5174;-53
2023/09/01 09:33:12;;;;;;;;;;;;;;;;;;5063640;28;5295;-51
2023/09/01 09:35:47;;;;;;;;;;;;;;;;;;5061282;28;4965;-54
2023/09/01 09:38:12;;;;;;;;;;;;;;;;;;5065867;28;4641;-55
2023/09/01 09:40:38;;;;;;;;;;;;;;;;;;5067327;28;1122;-55
2023/09/01 09:43:03;;;;;;;;;;;;;;;;;;5064711;28;5195;-53
2023/09/01 09:45:30;;;;;;;;;;;;;;;;;;5062018;28;4528;-54
2023/09/01 09:47:56;;;;;;;;;;;;;;;;;;5066046;28;4988;-55
2023/09/01 09:50:21;;;;;;;;;;;;;;;;;;5068917;28;4506;-56
2023/09/01 09:52:54;;;;;;;;;;;;;;;;;;5046768;28;1388;-55
2023/09/01 09:55:39;;;;;;;;;;;;;;;;;;5086110;28;5020;-54
2023/09/01 09:58:06;;;;;;;;;;;;;;;;;;5090027;28;5004;-56
2023/09/01 10:00:32;;;;;;;;;;;;;;;;;;5090063;28;5016;-55
2023/09/01 10:03:01;;;;;;;;;;;;;;;;;;5086017;28;5101;-55
2023/09/01 10:05:28;;;;;;;;;;;;;;;;;;5090191;28;4956;-55
2023/09/01 10:07:54;;;;;;;;;;;;;;;;;;5106165;28;1137;-55
2023/09/01 10:10:19;;;;;;;;;;;;;;;;;;5089147;28;4891;-54
2023/09/01 10:12:44;;;;;;;;;;;;;;;;;;5089552;28;5099;-55
2023/09/01 10:15:10;;;;;;;;;;;;;;;;;;5090343;28;5323;-52
2023/09/01 10:17:35;;;;;;;;;;;;;;;;;;5093666;28;4544;-55
2023/09/01 10:20:06;;;;;;;;;;;;;;;;;;5088766;28;1174;-56
2023/09/01 10:22:38;;;;;;;;;;;;;;;;;;5089557;28;4615;-52
2023/09/01 10:25:15;;;;;;;;;;;;;;;;;;5086503;28;4809;-54
2023/09/01 10:28:00;;;;;;;;;;;;;;;;;;5089505;28;5038;-56
2023/09/01 10:30:25;;;;;;;;;;;;;;;;;;5085858;28;4850;-56
2023/09/01 10:32:51;;;;;;;;;;;;;;;;;;5082081;28;5287;-54
2023/09/01 10:35:35;;;;;;;;;;;;;;;;;;5089520;28;5048;-55
2023/09/01 10:38:10;;;;;;;;;;;;;;;;;;5057953;28;1248;-56
2023/09/01 10:41:05;;;;;;;;;;;;;;;;;;5086392;28;5019;-55
2023/09/01 10:43:33;;;;;;;;;;;;;;;;;;5079239;28;4503;-56
2023/09/01 10:46:17;;;;;;;;;;;;;;;;;;5089390;28;5482;-56
2023/09/01 10:48:48;;;;;;;;;;;;;;;;;;5089129;28;4424;-56
2023/09/01 10:51:14;;;;;;;;;;;;;;;;;;5089666;28;5082;-56
2023/09/01 10:53:39;;;;;;;;;;;;;;;;;;5088899;28;5017;-55
2023/09/01 10:56:11;;;;;;;;;;;;;;;;;;5081000;28;1271;-56
2023/09/01 10:58:46;;;;;;;;;;;;;;;;;;5088129;28;5114;-56
2023/09/01 11:01:33;;;;;;;;;;;;;;;;;;5083185;28;5103;-55
2023/09/01 11:04:14;;;;;;;;;;;;;;;;;;5084320;28;5063;-56
2023/09/01 11:06:58;;;;;;;;;;;;;;;;;;5088091;28;4445;-56
2023/09/01 11:09:35;;;;;;;;;;;;;;;;;;5088870;28;5036;-54
2023/09/01 11:12:00;;;;;;;;;;;;;;;;;;5089311;28;5044;-56
2023/09/01 11:14:25;;;;;;;;;;;;;;;;;;5085804;28;4440;-56
2023/09/01 11:16:51;;;;;;;;;;;;;;;;;;5089341;28;1104;-56
2023/09/01 11:19:16;;;;;;;;;;;;;;;;;;5088809;28;5254;-54
2023/09/01 11:21:41;;;;;;;;;;;;;;;;;;5088571;28;4999;-56
2023/09/01 11:24:07;;;;;;;;;;;;;;;;;;5078951;28;4908;-53
2023/09/01 11:26:32;;;;;;;;;;;;;;;;;;5088596;28;5191;-55
2023/09/01 11:28:58;;;;;;;;;;;;;;;;;;5089172;28;1111;-56
2023/09/01 11:31:23;;;;;;;;;;;;;;;;;;5086147;28;5058;-54
2023/09/01 11:33:52;;;;;;;;;;;;;;;;;;5094869;28;5049;-56
2023/09/01 11:36:18;;;;;;;;;;;;;;;;;;5088742;28;5049;-55
2023/09/01 11:38:43;;;;;;;;;;;;;;;;;;5088204;28;5174;-52
2023/09/01 11:41:19;;;;;;;;;;;;;;;;;;5087626;28;5049;-54
2023/09/01 11:43:44;;;;;;;;;;;;;;;;;;5084756;28;1914;-55
2023/09/01 11:46:12;;;;;;;;;;;;;;;;;;5088508;28;5121;-55
2023/09/01 11:48:37;;;;;;;;;;;;;;;;;;5069733;28;5008;-55
2023/09/01 11:51:04;;;;;;;;;;;;;;;;;;5081035;28;5031;-56
2023/09/01 11:53:32;;;;;;;;;;;;;;;;;;5087842;28;5047;-54
2023/09/01 11:56:01;;;;;;;;;;;;;;;;;;5088588;28;1375;-55
2023/09/01 11:58:32;;;;;;;;;;;;;;;;;;5083104;28;4937;-53
2023/09/01 12:01:06;;;;;;;;;;;;;;;;;;5083373;28;5091;-56
2023/09/01 12:03:32;;;;;;;;;;;;;;;;;;5087451;28;5068;-51
2023/09/01 12:05:57;;;;;;;;;;;;;;;;;;5088419;28;5033;-56
2023/09/01 12:08:23;;;;;;;;;;;;;;;;;;5083174;28;4527;-55
2023/09/01 12:10:48;;;;;;;;;;;;;;;;;;5088286;28;1131;-54
2023/09/01 12:13:13;;;;;;;;;;;;;;;;;;5088031;28;4443;-56
2023/09/01 12:15:55;;;;;;;;;;;;;;;;;;5087526;28;4695;-55
2023/09/01 12:18:32;;;;;;;;;;;;;;;;;;5083403;28;4955;-55
2023/09/01 12:20:57;;;;;;;;;;;;;;;;;;5087778;28;4427;-56
2023/09/01 12:23:32;;;;;;;;;;;;;;;;;;5087283;28;5187;-55
2023/09/01 12:25:58;;;;;;;;;;;;;;;;;;5085454;28;1302;-56
2023/09/01 12:28:29;;;;;;;;;;;;;;;;;;5087496;28;4930;-54
2023/09/01 12:30:54;;;;;;;;;;;;;;;;;;5085402;28;5757;-56
2023/09/01 12:33:20;;;;;;;;;;;;;;;;;;5081652;28;5159;-56
2023/09/01 12:35:45;;;;;;;;;;;;;;;;;;5081074;28;5125;-55
2023/09/01 12:38:10;;;;;;;;;;;;;;;;;;5087470;28;5057;-55
2023/09/01 12:40:35;;;;;;;;;;;;;;;;;;5069518;28;1339;-57
2023/09/01 12:43:01;;;;;;;;;;;;;;;;;;5087852;28;4674;-55
2023/09/01 12:45:26;;;;;;;;;;;;;;;;;;5084657;28;5015;-53
2023/09/01 12:47:52;;;;;;;;;;;;;;;;;;5088014;28;4968;-55
2023/09/01 12:50:17;;;;;;;;;;;;;;;;;;5087403;28;4998;-53
2023/09/01 12:52:42;;;;;;;;;;;;;;;;;;5081916;28;1195;-56
2023/09/01 12:55:07;;;;;;;;;;;;;;;;;;5083424;28;4809;-56
2023/09/01 12:57:33;;;;;;;;;;;;;;;;;;5087338;28;5074;-54
2023/09/01 12:59:58;;;;;;;;;;;;;;;;;;5087416;28;5310;-56
2023/09/01 13:02:23;;;;;;;;;;;;;;;;;;5082498;28;5184;-56
2023/09/01 13:04:48;;;;;;;;;;;;;;;;;;5087563;28;1320;-54
2023/09/01 13:07:15;;;;;;;;;;;;;;;;;;5087009;28;4870;-55
2023/09/01 13:09:41;;;;;;;;;;;;;;;;;;5086796;28;4965;-56
2023/09/01 13:12:07;;;;;;;;;;;;;;;;;;5085599;28;5027;-55
2023/09/01 13:14:32;;;;;;;;;;;;;;;;;;5086812;28;4638;-49
2023/09/01 13:16:57;;;;;;;;;;;;;;;;;;5087449;28;1199;-55
2023/09/01 13:19:23;;;;;;;;;;;;;;;;;;5084290;28;5000;-56
2023/09/01 13:21:48;;;;;;;;;;;;;;;;;;5082770;28;5228;-56
2023/09/01 13:24:13;;;;;;;;;;;;;;;;;;5085698;28;4637;-56
2023/09/01 13:26:38;;;;;;;;;;;;;;;;;;5072558;28;5187;-54
2023/09/01 13:29:04;;;;;;;;;;;;;;;;;;5088671;28;1117;-56
2023/09/01 13:31:29;;;;;;;;;;;;;;;;;;5086476;28;5052;-56
2023/09/01 13:33:54;;;;;;;;;;;;;;;;;;5090364;28;5028;-53
2023/09/01 13:36:20;;;;;;;;;;;;;;;;;;5090673;28;4448;-52
2023/09/01 13:38:45;;;;;;;;;;;;;;;;;;5089118;28;5145;-55
2023/09/01 13:41:11;;;;;;;;;;;;;;;;;;5087168;28;5008;-59
2023/09/01 13:43:36;;;;;;;;;;;;;;;;;;5093322;28;2906;-59
2023/09/01 13:46:20;;;;;;;;;;;;;;;;;;5089746;28;4504;-59
2023/09/01 13:48:45;;;;;;;;;;;;;;;;;;5090643;28;5257;-58
2023/09/01 13:51:11;;;;;;;;;;;;;;;;;;5089796;28;4473;-58
2023/09/01 13:53:36;;;;;;;;;;;;;;;;;;5091841;28;4718;-59
2023/09/01 13:56:01;;;;;;;;;;;;;;;;;;5092258;28;1506;-59
2023/09/01 13:58:27;;;;;;;;;;;;;;;;;;5089432;28;5116;-58
2023/09/01 14:00:55;;;;;;;;;;;;;;;;;;5087933;28;4476;-59
2023/09/01 14:03:20;;;;;;;;;;;;;;;;;;5086298;28;5155;-58
2023/09/01 14:05:45;;;;;;;;;;;;;;;;;;5086637;28;4977;-58
2023/09/01 14:08:10;;;;;;;;;;;;;;;;;;5087013;28;4942;-58
2023/09/01 14:10:36;;;;;;;;;;;;;;;;;;5085288;28;1299;-58
2023/09/01 14:13:01;;;;;;;;;;;;;;;;;;5090519;28;4950;-58
2023/09/01 14:15:26;;;;;;;;;;;;;;;;;;5090234;28;4630;-58
2023/09/01 14:17:51;;;;;;;;;;;;;;;;;;5090536;28;4966;-58
2023/09/01 14:20:17;;;;;;;;;;;;;;;;;;5090429;28;4455;-58
2023/09/01 14:22:42;;;;;;;;;;;;;;;;;;5090939;28;1933;-59
2023/09/01 14:25:07;;;;;;;;;;;;;;;;;;5088072;28;5043;-58
2023/09/01 14:27:33;;;;;;;;;;;;;;;;;;5082489;28;5145;-58
2023/09/01 14:29:58;;;;;;;;;;;;;;;;;;5087858;28;4995;-58
2023/09/01 14:32:23;;;;;;;;;;;;;;;;;;5086106;28;5126;-58
2023/09/01 14:34:48;;;;;;;;;;;;;;;;;;5099988;28;1381;-57
2023/09/01 14:37:14;;;;;;;;;;;;;;;;;;5090854;28;4920;-55
2023/09/01 14:39:39;;;;;;;;;;;;;;;;;;5097059;28;4849;-58
2023/09/01 14:42:04;;;;;;;;;;;;;;;;;;5097932;28;4977;-58
2023/09/01 14:44:29;;;;;;;;;;;;;;;;;;5089781;28;4490;-58
2023/09/01 14:46:55;;;;;;;;;;;;;;;;;;5097010;28;1162;-58
2023/09/01 14:49:20;;;;;;;;;;;;;;;;;;5103683;28;4982;-57
2023/09/01 14:51:45;;;;;;;;;;;;;;;;;;5100867;28;5097;-58
2023/09/01 14:54:10;;;;;;;;;;;;;;;;;;5096692;28;5129;-59
2023/09/01 14:56:36;;;;;;;;;;;;;;;;;;5091956;28;4479;-58
2023/09/01 14:59:01;;;;;;;;;;;;;;;;;;5090081;28;1320;-58
2023/09/01 15:01:26;;;;;;;;;;;;;;;;;;5078781;28;5130;-58
2023/09/01 15:03:52;;;;;;;;;;;;;;;;;;5060654;28;5021;-57
2023/09/01 15:06:17;;;;;;;;;;;;;;;;;;5081496;28;4966;-56
2023/09/01 15:08:42;;;;;;;;;;;;;;;;;;5082126;28;4942;-58
2023/09/01 15:11:08;;;;;;;;;;;;;;;;;;5083326;28;1127;-57
2023/09/01 15:13:33;;;;;;;;;;;;;;;;;;5072766;28;4545;-56
2023/09/01 15:15:58;;;;;;;;;;;;;;;;;;5081251;28;4789;-59
2023/09/01 15:18:23;;;;;;;;;;;;;;;;;;5085420;28;4971;-59
2023/09/01 15:21:00;;;;;;;;;;;;;;;;;;5095369;28;5018;-58
2023/09/01 15:23:25;;;;;;;;;;;;;;;;;;5079264;28;5274;-58
2023/09/01 15:25:50;;;;;;;;;;;;;;;;;;5079388;28;1206;-56
2023/09/01 15:28:16;;;;;;;;;;;;;;;;;;5081073;28;4508;-57
2023/09/01 15:30:42;;;;;;;;;;;;;;;;;;5079729;28;4441;-58
2023/09/01 15:33:07;;;;;;;;;;;;;;;;;;5075162;28;4901;-59
2023/09/01 15:35:32;;;;;;;;;;;;;;;;;;5078770;28;4470;-53
2023/09/01 15:37:57;;;;;;;;;;;;;;;;;;5083430;28;1147;-58
2023/09/01 15:40:24;;;;;;;;;;;;;;;;;;5076033;28;4494;-57
2023/09/01 15:42:52;;;;;;;;;;;;;;;;;;5078010;28;4854;-58
2023/09/01 15:45:17;;;;;;;;;;;;;;;;;;5080918;28;4611;-58
2023/09/01 15:47:42;;;;;;;;;;;;;;;;;;5083701;28;5221;-58
2023/09/01 15:50:07;;;;;;;;;;;;;;;;;;5087378;28;2061;-54
2023/09/01 15:52:33;;;;;;;;;;;;;;;;;;5070894;28;4852;-57
2023/09/01 15:54:58;;;;;;;;;;;;;;;;;;5076695;28;5155;-55
2023/09/01 15:57:23;;;;;;;;;;;;;;;;;;5098908;28;5034;-56
2023/09/01 15:59:49;;;;;;;;;;;;;;;;;;5094223;28;4857;-57
2023/09/01 16:02:14;;;;;;;;;;;;;;;;;;5099773;28;4670;-58
2023/09/01 16:04:40;;;;;;;;;;;;;;;;;;5098861;28;1287;-57
2023/09/01 16:07:05;;;;;;;;;;;;;;;;;;5097498;28;4984;-56
2023/09/01 16:09:30;;;;;;;;;;;;;;;;;;5097322;28;5053;-58
2023/09/01 16:11:56;;;;;;;;;;;;;;;;;;5096673;28;4995;-58
2023/09/01 16:14:21;;;;;;;;;;;;;;;;;;5094722;28;4941;-59
2023/09/01 16:16:49;;;;;;;;;;;;;;;;;;5098260;28;1311;-55
2023/09/01 16:19:17;;;;;;;;;;;;;;;;;;5096969;28;5051;-55
2023/09/01 16:21:43;;;;;;;;;;;;;;;;;;5098403;28;4452;-57
2023/09/01 16:24:08;;;;;;;;;;;;;;;;;;5095356;28;5327;-58
2023/09/01 16:26:33;;;;;;;;;;;;;;;;;;5098467;28;4434;-60
2023/09/01 16:28:59;;;;;;;;;;;;;;;;;;5095011;28;1231;-57
2023/09/01 16:31:24;;;;;;;;;;;;;;;;;;5094414;28;4882;-54
2023/09/01 16:33:49;;;;;;;;;;;;;;;;;;5093688;28;5011;-57
2023/09/01 16:36:15;;;;;;;;;;;;;;;;;;5097488;28;4947;-59
2023/09/01 16:38:40;;;;;;;;;;;;;;;;;;5093774;28;4958;-59
2023/09/01 16:41:05;;;;;;;;;;;;;;;;;;5096380;28;1135;-59
2023/09/01 16:43:30;;;;;;;;;;;;;;;;;;5099675;28;4810;-58
2023/09/01 16:45:56;;;;;;;;;;;;;;;;;;5097528;28;5092;-58
2023/09/01 16:48:22;;;;;;;;;;;;;;;;;;5099914;28;5084;-59
2023/09/01 16:50:47;;;;;;;;;;;;;;;;;;5078246;28;5158;-58
2023/09/01 16:53:12;;;;;;;;;;;;;;;;;;5093163;28;4977;-58
2023/09/01 16:55:38;;;;;;;;;;;;;;;;;;5091315;28;1416;-57
2023/09/01 16:58:03;;;;;;;;;;;;;;;;;;5092683;28;5008;-58